Terminal Aerodrome Forecast
Issued by NWS Wilmington, NC

Home | Current Version | Previous Version | Text Only | Print | Product List | Glossary On
Versions: 1 2 3 4 5 6 7 8 9 10 11 12 13 14 15 16 17 18 19 20
000
FTUS42 KILM 162300
TAFILM
TAF
KILM 162320Z 1700/1724 15003KT P6SM FEW030 FEW100
      TEMPO 1704/1708 4SM BR
     FM170800 03003KT 6SM BR FEW008 BKN100
     FM171300 06005KT P6SM BKN020
     FM171700 07007KT P6SM SCT020 BKN040=

USA.gov is the U.S. government's official web portal to all federal, state and local government web resources and services.